Flight Track Log - Related Links

Times and Time Zones

All times are in EDT time to prevent confusion due to time zone crossing. See the ASQ5401 flight status page for this flight to view local times or setup timezone preferences in your user account.

Time Position Orientation Groundspeed Altitude Reporting Facility
EDT Latitude Longitude Course Direction KTS MPH feet Rate Location/Type
Thu 02:21:56 PM 33.6333 -84.4667 247° West 157 181 2,100  Level Atlanta TRACON
Thu 02:22:44 PM 33.6181 -84.5103 247° West 348 400 2,700 1,667 Climbing Atlanta Center
Thu 02:23:44 PM 33.5781 -84.5847 237° Southwest 310 357 5,100 2,400 Climbing Atlanta Center
Thu 02:24:44 PM 33.5008 -84.5869 181° South 262 302 7,500 2,250 Climbing Atlanta Center
Thu 02:25:44 PM 33.4531 -84.5069 126° Southeast 304 350 9,600 1,950 Climbing Atlanta Center
Thu 02:26:44 PM 33.4556 -84.3947 88° East 311 358 11,400 1,650 Climbing Atlanta Center
Thu 02:27:44 PM 33.4558 -84.2778 90° East 338 389 12,900 1,350 Climbing Atlanta Center
Thu 02:28:44 PM 33.4747 -84.1533 80° East 361 415 14,100 1,200 Climbing Atlanta Center
Thu 02:29:44 PM 33.4917 -84.0289 81° East 376 433 15,300 1,200 Climbing Atlanta Center
Thu 02:30:44 PM 33.5103 -83.8994 80° East 386 444 16,500 900 Climbing Atlanta Center
Thu 02:31:44 PM 33.5289 -83.7672 80° East 394 453 17,100 300 Climbing Atlanta Center
Thu 02:32:44 PM 33.5472 -83.6225 81° East 422 486 17,100  Level Atlanta Center
Thu 02:33:44 PM 33.5656 -83.4728 82° East 449 517 17,100  Level Atlanta Center
Thu 02:34:44 PM 33.5794 -83.3381 83° East 455 524 17,100 -50 Level Atlanta Center
Thu 02:35:44 PM 33.5992 -83.1858 81° East 460 529 17,000 -50 Descending Atlanta Center
Thu 02:36:44 PM 33.6106 -83.0386 85° East 460 529 17,000 -250 Level Atlanta Center
Thu 02:37:44 PM 33.6178 -82.8839 87° East 465 535 16,500 -1,200 Descending Atlanta Center
Thu 02:38:44 PM 33.5808 -82.7422 107° East 448 516 14,600 -1,850 Descending Atlanta Center
Thu 02:39:44 PM 33.5417 -82.6033 109° East 440 506 12,800 -1,850 Descending Atlanta Center
Thu 02:40:44 PM 33.4939 -82.4594 112° Southeast 429 494 10,900 -1,300 Descending Atlanta Center
Thu 02:41:44 PM 33.4694 -82.3406 104° East 392 451 10,200 -1,250 Descending Atlanta Center
Thu 02:42:44 PM 33.4428 -82.2364 107° East 351 404 8,400 -1,850 Descending Atlanta Center
Thu 02:43:44 PM 33.4164 -82.1425 109° East 321 369 6,500 -1,800 Descending Atlanta Center
Thu 02:44:44 PM 33.4064 -82.0406 97° East 305 351 4,800 -1,450 Descending Atlanta Center
Thu 02:45:44 PM 33.4239 -81.9556 76° East 277 319 3,600 -1,200 Descending Atlanta Center
Thu 02:47:00 PM 33.3667 -81.9500 106° East  Level FlightAware Approximate
Thu 02:54:00 PM 33.3699 -81.9645 106° East  Level Estimated
Thu 02:55:00 PM 33.3699 -81.9645 106° East  Level Estimated
Thu 02:56:00 PM 33.3699 -81.9645 106° East  Level Estimated
Thu 02:57:00 PM 33.3699 -81.9645 106° East  Level Estimated

Login

Don't have an account? Register now (free) for customized features, flight alerts, and more!